sensor_id;sensor_type;location;lat;lon;timestamp;P1;durP1;ratioP1;P2;durP2;ratioP2
2622;SDS011;1321;48.690;9.022;2023-07-31T00:01:04;12.93;;;12.53;;
2622;SDS011;1321;48.690;9.022;2023-07-31T00:03:32;12.67;;;12.27;;
2622;SDS011;1321;48.690;9.022;2023-07-31T00:06:02;12.47;;;12.07;;
2622;SDS011;1321;48.690;9.022;2023-07-31T00:08:30;13.60;;;13.00;;
2622;SDS011;1321;48.690;9.022;2023-07-31T00:10:58;13.23;;;12.83;;
2622;SDS011;1321;48.690;9.022;2023-07-31T00:13:26;13.13;;;12.50;;
2622;SDS011;1321;48.690;9.022;2023-07-31T00:15:55;12.93;;;12.53;;
2622;SDS011;1321;48.690;9.022;2023-07-31T00:18:23;12.73;;;12.23;;
2622;SDS011;1321;48.690;9.022;2023-07-31T00:20:51;13.00;;;12.37;;
2622;SDS011;1321;48.690;9.022;2023-07-31T00:23:21;12.80;;;12.37;;
2622;SDS011;1321;48.690;9.022;2023-07-31T00:25:49;13.50;;;12.97;;
2622;SDS011;1321;48.690;9.022;2023-07-31T00:28:24;13.07;;;12.60;;
2622;SDS011;1321;48.690;9.022;2023-07-31T00:30:56;12.77;;;12.43;;
2622;SDS011;1321;48.690;9.022;2023-07-31T00:33:25;13.40;;;12.90;;
2622;SDS011;1321;48.690;9.022;2023-07-31T00:35:53;12.93;;;12.63;;
2622;SDS011;1321;48.690;9.022;2023-07-31T00:38:23;13.33;;;12.73;;
2622;SDS011;1321;48.690;9.022;2023-07-31T00:40:51;12.90;;;12.50;;
2622;SDS011;1321;48.690;9.022;2023-07-31T00:43:19;13.50;;;12.80;;
2622;SDS011;1321;48.690;9.022;2023-07-31T00:45:48;12.93;;;12.43;;
2622;SDS011;1321;48.690;9.022;2023-07-31T00:48:17;12.80;;;12.47;;
2622;SDS011;1321;48.690;9.022;2023-07-31T00:50:45;13.40;;;12.97;;
2622;SDS011;1321;48.690;9.022;2023-07-31T00:53:14;13.00;;;12.60;;
2622;SDS011;1321;48.690;9.022;2023-07-31T00:55:43;12.93;;;12.63;;
2622;SDS011;1321;48.690;9.022;2023-07-31T00:58:12;12.97;;;12.47;;
2622;SDS011;1321;48.690;9.022;2023-07-31T01:00:41;13.40;;;12.80;;
2622;SDS011;1321;48.690;9.022;2023-07-31T01:03:09;13.53;;;13.00;;
2622;SDS011;1321;48.690;9.022;2023-07-31T01:05:39;13.00;;;12.60;;
2622;SDS011;1321;48.690;9.022;2023-07-31T01:08:18;12.70;;;12.33;;
2622;SDS011;1321;48.690;9.022;2023-07-31T01:10:58;13.13;;;12.53;;
2622;SDS011;1321;48.690;9.022;2023-07-31T01:13:33;13.03;;;12.60;;
2622;SDS011;1321;48.690;9.022;2023-07-31T01:16:02;13.17;;;12.77;;
2622;SDS011;1321;48.690;9.022;2023-07-31T01:18:30;14.03;;;13.23;;
2622;SDS011;1321;48.690;9.022;2023-07-31T01:21:02;13.43;;;12.90;;
2622;SDS011;1321;48.690;9.022;2023-07-31T01:23:58;13.37;;;12.83;;
2622;SDS011;1321;48.690;9.022;2023-07-31T01:26:47;12.77;;;12.37;;
2622;SDS011;1321;48.690;9.022;2023-07-31T01:29:23;13.20;;;12.80;;
2622;SDS011;1321;48.690;9.022;2023-07-31T01:32:01;13.00;;;12.60;;
2622;SDS011;1321;48.690;9.022;2023-07-31T01:34:30;12.93;;;12.50;;
2622;SDS011;1321;48.690;9.022;2023-07-31T01:36:59;13.20;;;12.80;;
2622;SDS011;1321;48.690;9.022;2023-07-31T01:39:27;13.00;;;12.40;;
2622;SDS011;1321;48.690;9.022;2023-07-31T01:41:57;13.27;;;12.70;;
2622;SDS011;1321;48.690;9.022;2023-07-31T01:44:25;13.50;;;12.97;;
2622;SDS011;1321;48.690;9.022;2023-07-31T01:46:54;13.13;;;12.70;;
2622;SDS011;1321;48.690;9.022;2023-07-31T01:49:23;13.30;;;12.80;;
2622;SDS011;1321;48.690;9.022;2023-07-31T01:51:51;13.20;;;12.70;;
2622;SDS011;1321;48.690;9.022;2023-07-31T01:54:19;13.50;;;12.90;;
2622;SDS011;1321;48.690;9.022;2023-07-31T01:56:48;12.70;;;12.30;;
2622;SDS011;1321;48.690;9.022;2023-07-31T01:59:17;13.20;;;12.70;;
2622;SDS011;1321;48.690;9.022;2023-07-31T02:01:49;13.20;;;12.60;;
2622;SDS011;1321;48.690;9.022;2023-07-31T02:04:20;13.33;;;12.93;;
2622;SDS011;1321;48.690;9.022;2023-07-31T02:06:48;14.37;;;13.30;;
2622;SDS011;1321;48.690;9.022;2023-07-31T02:09:16;13.30;;;12.90;;
2622;SDS011;1321;48.690;9.022;2023-07-31T02:11:45;13.37;;;12.97;;
2622;SDS011;1321;48.690;9.022;2023-07-31T02:14:13;13.00;;;12.60;;
2622;SDS011;1321;48.690;9.022;2023-07-31T02:16:42;13.40;;;13.00;;
2622;SDS011;1321;48.690;9.022;2023-07-31T02:19:11;13.53;;;12.80;;
2622;SDS011;1321;48.690;9.022;2023-07-31T02:21:39;13.40;;;12.80;;
2622;SDS011;1321;48.690;9.022;2023-07-31T02:24:07;13.10;;;12.70;;
2622;SDS011;1321;48.690;9.022;2023-07-31T02:26:35;13.43;;;12.83;;
2622;SDS011;1321;48.690;9.022;2023-07-31T02:29:04;13.10;;;12.70;;
2622;SDS011;1321;48.690;9.022;2023-07-31T02:31:32;12.80;;;12.40;;
2622;SDS011;1321;48.690;9.022;2023-07-31T02:34:02;12.50;;;12.20;;
2622;SDS011;1321;48.690;9.022;2023-07-31T02:36:30;13.80;;;13.20;;
2622;SDS011;1321;48.690;9.022;2023-07-31T02:38:59;12.63;;;12.23;;
2622;SDS011;1321;48.690;9.022;2023-07-31T02:41:27;13.40;;;12.70;;
2622;SDS011;1321;48.690;9.022;2023-07-31T02:43:55;13.10;;;12.70;;
2622;SDS011;1321;48.690;9.022;2023-07-31T02:46:23;13.20;;;12.80;;
2622;SDS011;1321;48.690;9.022;2023-07-31T02:48:51;13.30;;;12.80;;
2622;SDS011;1321;48.690;9.022;2023-07-31T02:51:21;13.23;;;12.80;;
2622;SDS011;1321;48.690;9.022;2023-07-31T02:53:49;12.70;;;12.30;;
2622;SDS011;1321;48.690;9.022;2023-07-31T02:56:17;12.93;;;12.43;;
2622;SDS011;1321;48.690;9.022;2023-07-31T02:58:46;13.23;;;12.73;;
2622;SDS011;1321;48.690;9.022;2023-07-31T03:01:14;13.40;;;12.80;;
2622;SDS011;1321;48.690;9.022;2023-07-31T03:03:42;13.13;;;12.73;;
2622;SDS011;1321;48.690;9.022;2023-07-31T03:06:11;13.60;;;12.90;;
2622;SDS011;1321;48.690;9.022;2023-07-31T03:08:41;13.37;;;12.73;;
2622;SDS011;1321;48.690;9.022;2023-07-31T03:11:09;12.50;;;12.20;;
2622;SDS011;1321;48.690;9.022;2023-07-31T03:13:37;13.03;;;12.63;;
2622;SDS011;1321;48.690;9.022;2023-07-31T03:16:06;13.57;;;12.90;;
2622;SDS011;1321;48.690;9.022;2023-07-31T03:18:34;13.00;;;12.30;;
2622;SDS011;1321;48.690;9.022;2023-07-31T03:21:02;13.10;;;12.70;;
2622;SDS011;1321;48.690;9.022;2023-07-31T03:23:31;13.63;;;13.23;;
2622;SDS011;1321;48.690;9.022;2023-07-31T03:26:01;13.33;;;12.93;;
2622;SDS011;1321;48.690;9.022;2023-07-31T03:28:31;13.50;;;12.90;;
2622;SDS011;1321;48.690;9.022;2023-07-31T03:30:59;13.10;;;12.70;;
2622;SDS011;1321;48.690;9.022;2023-07-31T03:33:30;13.47;;;12.93;;
2622;SDS011;1321;48.690;9.022;2023-07-31T03:35:59;12.90;;;12.50;;
2622;SDS011;1321;48.690;9.022;2023-07-31T03:38:27;13.67;;;13.17;;
2622;SDS011;1321;48.690;9.022;2023-07-31T03:40:55;12.50;;;12.20;;
2622;SDS011;1321;48.690;9.022;2023-07-31T03:43:26;13.17;;;12.77;;
2622;SDS011;1321;48.690;9.022;2023-07-31T03:45:55;13.03;;;12.53;;
2622;SDS011;1321;48.690;9.022;2023-07-31T03:48:23;13.00;;;12.60;;
2622;SDS011;1321;48.690;9.022;2023-07-31T03:50:51;13.17;;;12.67;;
2622;SDS011;1321;48.690;9.022;2023-07-31T03:53:21;13.23;;;12.83;;
2622;SDS011;1321;48.690;9.022;2023-07-31T03:55:50;13.53;;;13.13;;
2622;SDS011;1321;48.690;9.022;2023-07-31T03:58:18;13.30;;;12.80;;
2622;SDS011;1321;48.690;9.022;2023-07-31T04:00:48;13.90;;;13.33;;
2622;SDS011;1321;48.690;9.022;2023-07-31T04:03:16;13.00;;;12.70;;
2622;SDS011;1321;48.690;9.022;2023-07-31T04:05:45;13.10;;;12.70;;
2622;SDS011;1321;48.690;9.022;2023-07-31T04:08:13;13.17;;;12.80;;
2622;SDS011;1321;48.690;9.022;2023-07-31T04:10:41;13.47;;;13.07;;
2622;SDS011;1321;48.690;9.022;2023-07-31T04:13:09;13.30;;;13.00;;
2622;SDS011;1321;48.690;9.022;2023-07-31T04:15:38;14.03;;;13.40;;
2622;SDS011;1321;48.690;9.022;2023-07-31T04:18:07;13.10;;;12.80;;
2622;SDS011;1321;48.690;9.022;2023-07-31T04:20:35;13.53;;;13.03;;
2622;SDS011;1321;48.690;9.022;2023-07-31T04:23:05;13.43;;;12.93;;
2622;SDS011;1321;48.690;9.022;2023-07-31T04:25:33;13.67;;;13.07;;
2622;SDS011;1321;48.690;9.022;2023-07-31T04:28:02;13.60;;;13.10;;
2622;SDS011;1321;48.690;9.022;2023-07-31T04:30:31;13.37;;;12.70;;
2622;SDS011;1321;48.690;9.022;2023-07-31T04:32:59;13.90;;;13.40;;
2622;SDS011;1321;48.690;9.022;2023-07-31T04:35:33;14.00;;;13.50;;
2622;SDS011;1321;48.690;9.022;2023-07-31T04:38:01;14.30;;;13.70;;
2622;SDS011;1321;48.690;9.022;2023-07-31T04:40:30;15.97;;;14.43;;
2622;SDS011;1321;48.690;9.022;2023-07-31T04:42:58;13.87;;;13.40;;
2622;SDS011;1321;48.690;9.022;2023-07-31T04:45:29;14.43;;;13.77;;
2622;SDS011;1321;48.690;9.022;2023-07-31T04:47:59;14.20;;;13.80;;
2622;SDS011;1321;48.690;9.022;2023-07-31T04:50:27;13.77;;;13.37;;
2622;SDS011;1321;48.690;9.022;2023-07-31T04:52:58;13.73;;;13.10;;
2622;SDS011;1321;48.690;9.022;2023-07-31T04:55:26;14.50;;;13.90;;
2622;SDS011;1321;48.690;9.022;2023-07-31T04:57:54;14.50;;;13.90;;
2622;SDS011;1321;48.690;9.022;2023-07-31T05:00:23;14.20;;;13.80;;
2622;SDS011;1321;48.690;9.022;2023-07-31T05:02:51;14.10;;;13.63;;
2622;SDS011;1321;48.690;9.022;2023-07-31T05:05:26;13.97;;;13.53;;
2622;SDS011;1321;48.690;9.022;2023-07-31T05:07:55;14.13;;;13.73;;
2622;SDS011;1321;48.690;9.022;2023-07-31T05:10:25;14.60;;;14.10;;
2622;SDS011;1321;48.690;9.022;2023-07-31T05:12:53;14.20;;;13.70;;
2622;SDS011;1321;48.690;9.022;2023-07-31T05:15:21;14.13;;;13.73;;
2622;SDS011;1321;48.690;9.022;2023-07-31T05:17:50;14.03;;;13.53;;
2622;SDS011;1321;48.690;9.022;2023-07-31T05:20:18;13.40;;;13.10;;
2622;SDS011;1321;48.690;9.022;2023-07-31T05:22:46;14.10;;;13.60;;
2622;SDS011;1321;48.690;9.022;2023-07-31T05:25:15;13.50;;;13.20;;
2622;SDS011;1321;48.690;9.022;2023-07-31T05:27:44;14.00;;;13.60;;
2622;SDS011;1321;48.690;9.022;2023-07-31T05:30:12;13.80;;;13.40;;
2622;SDS011;1321;48.690;9.022;2023-07-31T05:32:40;14.27;;;13.73;;
2622;SDS011;1321;48.690;9.022;2023-07-31T05:35:09;14.70;;;14.00;;
2622;SDS011;1321;48.690;9.022;2023-07-31T05:37:37;14.57;;;13.87;;
2622;SDS011;1321;48.690;9.022;2023-07-31T05:40:05;14.10;;;13.70;;
2622;SDS011;1321;48.690;9.022;2023-07-31T05:42:34;15.30;;;14.17;;
2622;SDS011;1321;48.690;9.022;2023-07-31T05:45:06;14.37;;;13.80;;
2622;SDS011;1321;48.690;9.022;2023-07-31T05:47:35;15.00;;;14.40;;
2622;SDS011;1321;48.690;9.022;2023-07-31T05:50:04;14.70;;;14.27;;
2622;SDS011;1321;48.690;9.022;2023-07-31T05:52:32;15.53;;;14.93;;
2622;SDS011;1321;48.690;9.022;2023-07-31T05:55:01;15.43;;;14.53;;
2622;SDS011;1321;48.690;9.022;2023-07-31T05:57:29;15.40;;;14.50;;
2622;SDS011;1321;48.690;9.022;2023-07-31T05:59:57;14.60;;;14.10;;
2622;SDS011;1321;48.690;9.022;2023-07-31T06:02:27;14.83;;;14.30;;
2622;SDS011;1321;48.690;9.022;2023-07-31T06:04:59;15.50;;;14.83;;
2622;SDS011;1321;48.690;9.022;2023-07-31T06:07:27;15.67;;;15.00;;
2622;SDS011;1321;48.690;9.022;2023-07-31T06:09:56;14.87;;;14.37;;
2622;SDS011;1321;48.690;9.022;2023-07-31T06:12:31;14.73;;;14.33;;
2622;SDS011;1321;48.690;9.022;2023-07-31T06:14:59;15.17;;;14.73;;
2622;SDS011;1321;48.690;9.022;2023-07-31T06:17:29;15.17;;;14.67;;
2622;SDS011;1321;48.690;9.022;2023-07-31T06:19:57;14.60;;;14.10;;
2622;SDS011;1321;48.690;9.022;2023-07-31T06:22:25;15.17;;;14.57;;
2622;SDS011;1321;48.690;9.022;2023-07-31T06:24:54;15.60;;;14.90;;
2622;SDS011;1321;48.690;9.022;2023-07-31T06:27:22;15.60;;;15.00;;
2622;SDS011;1321;48.690;9.022;2023-07-31T06:29:50;15.40;;;14.80;;
2622;SDS011;1321;48.690;9.022;2023-07-31T06:32:18;15.50;;;14.80;;
2622;SDS011;1321;48.690;9.022;2023-07-31T06:34:48;15.40;;;14.90;;
2622;SDS011;1321;48.690;9.022;2023-07-31T06:37:16;14.30;;;13.90;;
2622;SDS011;1321;48.690;9.022;2023-07-31T06:39:44;14.53;;;14.13;;
2622;SDS011;1321;48.690;9.022;2023-07-31T06:42:12;15.23;;;14.70;;
2622;SDS011;1321;48.690;9.022;2023-07-31T06:44:41;15.20;;;14.60;;
2622;SDS011;1321;48.690;9.022;2023-07-31T06:47:09;15.17;;;14.53;;
2622;SDS011;1321;48.690;9.022;2023-07-31T06:49:37;14.93;;;14.43;;
2622;SDS011;1321;48.690;9.022;2023-07-31T06:52:07;15.30;;;14.50;;
2622;SDS011;1321;48.690;9.022;2023-07-31T06:54:42;15.30;;;14.60;;
2622;SDS011;1321;48.690;9.022;2023-07-31T06:57:28;15.53;;;14.90;;
2622;SDS011;1321;48.690;9.022;2023-07-31T06:59:57;16.00;;;15.10;;
2622;SDS011;1321;48.690;9.022;2023-07-31T07:02:26;15.37;;;14.60;;
2622;SDS011;1321;48.690;9.022;2023-07-31T07:04:54;15.93;;;14.80;;
2622;SDS011;1321;48.690;9.022;2023-07-31T07:07:24;15.90;;;15.30;;
2622;SDS011;1321;48.690;9.022;2023-07-31T07:09:52;16.03;;;15.07;;
2622;SDS011;1321;48.690;9.022;2023-07-31T07:12:25;15.47;;;14.97;;
2622;SDS011;1321;48.690;9.022;2023-07-31T07:14:54;15.10;;;14.60;;
2622;SDS011;1321;48.690;9.022;2023-07-31T07:17:31;15.80;;;15.20;;
2622;SDS011;1321;48.690;9.022;2023-07-31T07:20:10;15.30;;;14.80;;
2622;SDS011;1321;48.690;9.022;2023-07-31T07:22:40;15.83;;;15.23;;
2622;SDS011;1321;48.690;9.022;2023-07-31T07:26:13;15.87;;;15.10;;
2622;SDS011;1321;48.690;9.022;2023-07-31T07:28:22;15.47;;;14.73;;
2622;SDS011;1321;48.690;9.022;2023-07-31T07:30:55;14.77;;;14.27;;
2622;SDS011;1321;48.690;9.022;2023-07-31T07:33:24;15.50;;;14.80;;
2622;SDS011;1321;48.690;9.022;2023-07-31T07:36:16;14.90;;;14.30;;
2622;SDS011;1321;48.690;9.022;2023-07-31T07:38:45;15.07;;;14.57;;
2622;SDS011;1321;48.690;9.022;2023-07-31T07:41:16;15.60;;;15.10;;
2622;SDS011;1321;48.690;9.022;2023-07-31T07:43:47;16.30;;;15.70;;
2622;SDS011;1321;48.690;9.022;2023-07-31T07:46:15;15.80;;;15.20;;
2622;SDS011;1321;48.690;9.022;2023-07-31T07:48:43;15.83;;;15.10;;
2622;SDS011;1321;48.690;9.022;2023-07-31T07:51:11;15.27;;;14.70;;
2622;SDS011;1321;48.690;9.022;2023-07-31T07:53:39;15.50;;;15.00;;
2622;SDS011;1321;48.690;9.022;2023-07-31T07:56:09;15.30;;;14.80;;
2622;SDS011;1321;48.690;9.022;2023-07-31T07:58:37;14.83;;;14.43;;
2622;SDS011;1321;48.690;9.022;2023-07-31T08:01:05;15.93;;;15.37;;
2622;SDS011;1321;48.690;9.022;2023-07-31T08:03:37;16.10;;;15.10;;
2622;SDS011;1321;48.690;9.022;2023-07-31T08:06:08;16.07;;;15.33;;
2622;SDS011;1321;48.690;9.022;2023-07-31T08:08:37;17.17;;;16.13;;
2622;SDS011;1321;48.690;9.022;2023-07-31T08:11:06;14.90;;;14.50;;
2622;SDS011;1321;48.690;9.022;2023-07-31T08:16:31;16.03;;;15.37;;
2622;SDS011;1321;48.690;9.022;2023-07-31T08:19:09;15.43;;;14.83;;
2622;SDS011;1321;48.690;9.022;2023-07-31T08:21:46;16.47;;;15.77;;
2622;SDS011;1321;48.690;9.022;2023-07-31T08:24:22;15.80;;;14.90;;
2622;SDS011;1321;48.690;9.022;2023-07-31T08:30:05;15.40;;;14.67;;
2622;SDS011;1321;48.690;9.022;2023-07-31T08:32:38;15.50;;;14.90;;
2622;SDS011;1321;48.690;9.022;2023-07-31T08:35:23;15.87;;;15.07;;
2622;SDS011;1321;48.690;9.022;2023-07-31T08:38:15;15.67;;;15.07;;
2622;SDS011;1321;48.690;9.022;2023-07-31T08:41:00;16.43;;;15.63;;
2622;SDS011;1321;48.690;9.022;2023-07-31T08:43:39;15.90;;;15.30;;
2622;SDS011;1321;48.690;9.022;2023-07-31T08:46:39;17.03;;;16.10;;
2622;SDS011;1321;48.690;9.022;2023-07-31T08:53:20;17.17;;;16.50;;
2622;SDS011;1321;48.690;9.022;2023-07-31T08:55:49;16.33;;;15.37;;
2622;SDS011;1321;48.690;9.022;2023-07-31T08:58:24;15.87;;;15.27;;
2622;SDS011;1321;48.690;9.022;2023-07-31T09:00:55;16.83;;;16.13;;
2622;SDS011;1321;48.690;9.022;2023-07-31T09:03:31;16.40;;;15.70;;
2622;SDS011;1321;48.690;9.022;2023-07-31T09:06:05;16.87;;;15.93;;
2622;SDS011;1321;48.690;9.022;2023-07-31T09:08:37;16.60;;;15.80;;
2622;SDS011;1321;48.690;9.022;2023-07-31T09:11:12;15.93;;;15.33;;
2622;SDS011;1321;48.690;9.022;2023-07-31T09:13:40;15.83;;;15.13;;
2622;SDS011;1321;48.690;9.022;2023-07-31T09:16:09;15.70;;;15.10;;
2622;SDS011;1321;48.690;9.022;2023-07-31T09:18:50;16.27;;;15.47;;
2622;SDS011;1321;48.690;9.022;2023-07-31T09:21:21;16.50;;;15.80;;
2622;SDS011;1321;48.690;9.022;2023-07-31T09:23:57;16.67;;;15.70;;
2622;SDS011;1321;48.690;9.022;2023-07-31T09:26:33;16.70;;;16.00;;
2622;SDS011;1321;48.690;9.022;2023-07-31T09:29:04;16.87;;;16.17;;
2622;SDS011;1321;48.690;9.022;2023-07-31T09:31:38;15.67;;;15.10;;
2622;SDS011;1321;48.690;9.022;2023-07-31T09:37:06;15.70;;;15.10;;
2622;SDS011;1321;48.690;9.022;2023-07-31T09:39:45;16.67;;;15.80;;
2622;SDS011;1321;48.690;9.022;2023-07-31T09:42:14;16.50;;;15.90;;
2622;SDS011;1321;48.690;9.022;2023-07-31T09:44:53;16.60;;;15.80;;
2622;SDS011;1321;48.690;9.022;2023-07-31T09:47:25;16.23;;;15.53;;
2622;SDS011;1321;48.690;9.022;2023-07-31T09:49:55;16.77;;;15.97;;
2622;SDS011;1321;48.690;9.022;2023-07-31T09:52:25;16.27;;;15.57;;
2622;SDS011;1321;48.690;9.022;2023-07-31T09:54:54;16.90;;;15.97;;
2622;SDS011;1321;48.690;9.022;2023-07-31T09:57:25;17.00;;;16.07;;
2622;SDS011;1321;48.690;9.022;2023-07-31T10:00:15;17.03;;;16.40;;
2622;SDS011;1321;48.690;9.022;2023-07-31T10:02:48;16.63;;;15.93;;
2622;SDS011;1321;48.690;9.022;2023-07-31T10:05:23;16.73;;;16.13;;
2622;SDS011;1321;48.690;9.022;2023-07-31T10:08:00;16.97;;;16.23;;
2622;SDS011;1321;48.690;9.022;2023-07-31T10:10:28;17.80;;;16.70;;
2622;SDS011;1321;48.690;9.022;2023-07-31T10:12:57;16.00;;;15.40;;
2622;SDS011;1321;48.690;9.022;2023-07-31T10:15:28;17.17;;;16.37;;
2622;SDS011;1321;48.690;9.022;2023-07-31T10:17:57;17.07;;;16.37;;
2622;SDS011;1321;48.690;9.022;2023-07-31T10:20:28;16.40;;;15.70;;
2622;SDS011;1321;48.690;9.022;2023-07-31T10:22:57;16.60;;;15.80;;
2622;SDS011;1321;48.690;9.022;2023-07-31T10:25:26;16.40;;;15.70;;
2622;SDS011;1321;48.690;9.022;2023-07-31T10:27:54;16.70;;;15.90;;
2622;SDS011;1321;48.690;9.022;2023-07-31T10:30:26;16.87;;;16.00;;
2622;SDS011;1321;48.690;9.022;2023-07-31T10:32:56;16.40;;;15.50;;
2622;SDS011;1321;48.690;9.022;2023-07-31T10:35:26;16.40;;;15.60;;
2622;SDS011;1321;48.690;9.022;2023-07-31T10:37:57;16.83;;;16.13;;
2622;SDS011;1321;48.690;9.022;2023-07-31T10:40:38;17.17;;;16.50;;
2622;SDS011;1321;48.690;9.022;2023-07-31T10:43:06;17.73;;;17.03;;
2622;SDS011;1321;48.690;9.022;2023-07-31T10:45:38;16.00;;;15.50;;
2622;SDS011;1321;48.690;9.022;2023-07-31T10:48:07;16.73;;;15.97;;
2622;SDS011;1321;48.690;9.022;2023-07-31T10:50:47;16.97;;;16.17;;
2622;SDS011;1321;48.690;9.022;2023-07-31T10:53:23;16.53;;;15.93;;
2622;SDS011;1321;48.690;9.022;2023-07-31T10:55:52;16.73;;;16.03;;
2622;SDS011;1321;48.690;9.022;2023-07-31T10:58:20;17.00;;;16.20;;
2622;SDS011;1321;48.690;9.022;2023-07-31T11:00:49;17.57;;;16.57;;
2622;SDS011;1321;48.690;9.022;2023-07-31T11:03:24;16.83;;;16.03;;
2622;SDS011;1321;48.690;9.022;2023-07-31T11:06:01;17.00;;;16.10;;
2622;SDS011;1321;48.690;9.022;2023-07-31T11:08:43;16.73;;;15.93;;
2622;SDS011;1321;48.690;9.022;2023-07-31T11:11:22;16.70;;;15.80;;
2622;SDS011;1321;48.690;9.022;2023-07-31T11:22:10;16.43;;;15.67;;
2622;SDS011;1321;48.690;9.022;2023-07-31T11:24:38;16.80;;;16.10;;
2622;SDS011;1321;48.690;9.022;2023-07-31T11:27:07;16.47;;;15.77;;
2622;SDS011;1321;48.690;9.022;2023-07-31T11:29:35;16.93;;;16.33;;
2622;SDS011;1321;48.690;9.022;2023-07-31T11:32:04;17.20;;;16.13;;
2622;SDS011;1321;48.690;9.022;2023-07-31T11:34:33;16.23;;;15.60;;
2622;SDS011;1321;48.690;9.022;2023-07-31T11:37:19;17.80;;;16.87;;
2622;SDS011;1321;48.690;9.022;2023-07-31T11:39:58;18.47;;;17.30;;
2622;SDS011;1321;48.690;9.022;2023-07-31T11:42:27;15.70;;;15.20;;
2622;SDS011;1321;48.690;9.022;2023-07-31T11:44:55;16.17;;;15.50;;
2622;SDS011;1321;48.690;9.022;2023-07-31T11:47:23;16.97;;;16.07;;
2622;SDS011;1321;48.690;9.022;2023-07-31T11:49:54;16.40;;;15.70;;
2622;SDS011;1321;48.690;9.022;2023-07-31T11:52:24;16.20;;;15.50;;
2622;SDS011;1321;48.690;9.022;2023-07-31T11:54:53;16.83;;;16.03;;
2622;SDS011;1321;48.690;9.022;2023-07-31T11:57:22;16.30;;;15.70;;
2622;SDS011;1321;48.690;9.022;2023-07-31T11:59:50;17.40;;;16.63;;
2622;SDS011;1321;48.690;9.022;2023-07-31T12:14:20;16.37;;;15.67;;
2622;SDS011;1321;48.690;9.022;2023-07-31T12:16:52;16.43;;;15.63;;
2622;SDS011;1321;48.690;9.022;2023-07-31T12:19:22;16.73;;;15.90;;
2622;SDS011;1321;48.690;9.022;2023-07-31T12:21:54;16.07;;;15.37;;
2622;SDS011;1321;48.690;9.022;2023-07-31T12:24:22;16.53;;;15.83;;
2622;SDS011;1321;48.690;9.022;2023-07-31T12:27:00;16.40;;;15.67;;
2622;SDS011;1321;48.690;9.022;2023-07-31T12:33:12;16.20;;;15.60;;
2622;SDS011;1321;48.690;9.022;2023-07-31T12:35:51;18.27;;;17.10;;
2622;SDS011;1321;48.690;9.022;2023-07-31T12:38:23;16.30;;;15.50;;
2622;SDS011;1321;48.690;9.022;2023-07-31T12:40:51;17.00;;;16.20;;
2622;SDS011;1321;48.690;9.022;2023-07-31T12:43:19;15.83;;;15.13;;
2622;SDS011;1321;48.690;9.022;2023-07-31T12:45:51;16.00;;;15.30;;
2622;SDS011;1321;48.690;9.022;2023-07-31T12:48:21;15.80;;;15.30;;
2622;SDS011;1321;48.690;9.022;2023-07-31T12:50:50;16.53;;;15.47;;
2622;SDS011;1321;48.690;9.022;2023-07-31T12:53:21;16.67;;;16.00;;
2622;SDS011;1321;48.690;9.022;2023-07-31T12:55:50;16.67;;;15.73;;
2622;SDS011;1321;48.690;9.022;2023-07-31T12:58:41;16.23;;;15.60;;
2622;SDS011;1321;48.690;9.022;2023-07-31T13:01:38;16.70;;;16.00;;
2622;SDS011;1321;48.690;9.022;2023-07-31T13:04:19;15.60;;;14.87;;
2622;SDS011;1321;48.690;9.022;2023-07-31T13:14:09;16.23;;;15.53;;
2622;SDS011;1321;48.690;9.022;2023-07-31T13:16:56;16.40;;;15.50;;
2622;SDS011;1321;48.690;9.022;2023-07-31T13:19:31;16.37;;;15.70;;
2622;SDS011;1321;48.690;9.022;2023-07-31T13:22:01;16.83;;;15.70;;
2622;SDS011;1321;48.690;9.022;2023-07-31T13:24:30;16.70;;;15.77;;
2622;SDS011;1321;48.690;9.022;2023-07-31T13:26:58;15.97;;;15.37;;
2622;SDS011;1321;48.690;9.022;2023-07-31T13:29:27;16.27;;;15.67;;
2622;SDS011;1321;48.690;9.022;2023-07-31T13:32:20;15.70;;;15.10;;
2622;SDS011;1321;48.690;9.022;2023-07-31T13:34:51;17.03;;;16.23;;
2622;SDS011;1321;48.690;9.022;2023-07-31T13:37:24;15.63;;;15.13;;
2622;SDS011;1321;48.690;9.022;2023-07-31T13:39:54;16.00;;;15.37;;
2622;SDS011;1321;48.690;9.022;2023-07-31T13:46:02;16.23;;;15.60;;
2622;SDS011;1321;48.690;9.022;2023-07-31T13:48:36;16.00;;;15.40;;
2622;SDS011;1321;48.690;9.022;2023-07-31T13:51:20;17.10;;;16.40;;
2622;SDS011;1321;48.690;9.022;2023-07-31T13:53:48;16.40;;;15.80;;
2622;SDS011;1321;48.690;9.022;2023-07-31T13:56:19;16.97;;;16.13;;
2622;SDS011;1321;48.690;9.022;2023-07-31T13:58:47;17.17;;;16.17;;
2622;SDS011;1321;48.690;9.022;2023-07-31T14:01:15;16.77;;;16.00;;
2622;SDS011;1321;48.690;9.022;2023-07-31T14:03:44;16.57;;;15.80;;
2622;SDS011;1321;48.690;9.022;2023-07-31T14:06:15;16.80;;;16.00;;
2622;SDS011;1321;48.690;9.022;2023-07-31T14:08:44;16.40;;;15.60;;
2622;SDS011;1321;48.690;9.022;2023-07-31T14:11:13;16.50;;;15.90;;
2622;SDS011;1321;48.690;9.022;2023-07-31T14:13:41;16.27;;;15.40;;
2622;SDS011;1321;48.690;9.022;2023-07-31T14:16:12;16.53;;;15.70;;
2622;SDS011;1321;48.690;9.022;2023-07-31T14:18:41;15.40;;;14.90;;
2622;SDS011;1321;48.690;9.022;2023-07-31T14:21:14;15.30;;;14.70;;
2622;SDS011;1321;48.690;9.022;2023-07-31T14:27:20;15.40;;;14.70;;
2622;SDS011;1321;48.690;9.022;2023-07-31T14:29:50;15.43;;;14.67;;
2622;SDS011;1321;48.690;9.022;2023-07-31T14:32:22;15.10;;;14.57;;
2622;SDS011;1321;48.690;9.022;2023-07-31T14:34:56;14.97;;;14.27;;
2622;SDS011;1321;48.690;9.022;2023-07-31T14:37:25;16.70;;;15.70;;
2622;SDS011;1321;48.690;9.022;2023-07-31T14:39:54;15.97;;;15.00;;
2622;SDS011;1321;48.690;9.022;2023-07-31T14:42:24;15.23;;;14.53;;
2622;SDS011;1321;48.690;9.022;2023-07-31T14:44:52;15.63;;;14.90;;
2622;SDS011;1321;48.690;9.022;2023-07-31T14:47:23;16.00;;;15.17;;
2622;SDS011;1321;48.690;9.022;2023-07-31T14:49:54;15.80;;;15.10;;
2622;SDS011;1321;48.690;9.022;2023-07-31T14:52:28;15.77;;;14.83;;
2622;SDS011;1321;48.690;9.022;2023-07-31T14:54:57;16.30;;;15.60;;
2622;SDS011;1321;48.690;9.022;2023-07-31T14:57:26;15.27;;;14.50;;
2622;SDS011;1321;48.690;9.022;2023-07-31T14:59:55;15.20;;;14.70;;
2622;SDS011;1321;48.690;9.022;2023-07-31T15:02:29;15.30;;;14.80;;
2622;SDS011;1321;48.690;9.022;2023-07-31T15:08:57;16.30;;;15.50;;
2622;SDS011;1321;48.690;9.022;2023-07-31T15:11:25;16.47;;;15.80;;
2622;SDS011;1321;48.690;9.022;2023-07-31T15:13:55;15.80;;;15.27;;
2622;SDS011;1321;48.690;9.022;2023-07-31T15:16:24;15.77;;;15.17;;
2622;SDS011;1321;48.690;9.022;2023-07-31T15:22:09;16.07;;;15.37;;
2622;SDS011;1321;48.690;9.022;2023-07-31T15:24:41;15.73;;;15.07;;
2622;SDS011;1321;48.690;9.022;2023-07-31T15:27:15;16.13;;;15.43;;
2622;SDS011;1321;48.690;9.022;2023-07-31T15:29:46;15.97;;;15.40;;
2622;SDS011;1321;48.690;9.022;2023-07-31T15:32:18;16.20;;;15.50;;
2622;SDS011;1321;48.690;9.022;2023-07-31T15:34:49;16.20;;;15.60;;
2622;SDS011;1321;48.690;9.022;2023-07-31T15:37:49;15.93;;;15.30;;
2622;SDS011;1321;48.690;9.022;2023-07-31T15:40:18;15.83;;;15.13;;
2622;SDS011;1321;48.690;9.022;2023-07-31T15:42:53;15.97;;;15.27;;
2622;SDS011;1321;48.690;9.022;2023-07-31T15:48:20;16.53;;;15.87;;
2622;SDS011;1321;48.690;9.022;2023-07-31T15:54:47;15.83;;;15.33;;
2622;SDS011;1321;48.690;9.022;2023-07-31T15:57:15;15.93;;;15.20;;
2622;SDS011;1321;48.690;9.022;2023-07-31T15:59:43;17.80;;;16.77;;
2622;SDS011;1321;48.690;9.022;2023-07-31T16:05:01;16.33;;;15.70;;
2622;SDS011;1321;48.690;9.022;2023-07-31T16:07:30;16.50;;;15.90;;
2622;SDS011;1321;48.690;9.022;2023-07-31T16:09:58;16.63;;;15.60;;
2622;SDS011;1321;48.690;9.022;2023-07-31T16:12:53;17.53;;;16.63;;
2622;SDS011;1321;48.690;9.022;2023-07-31T16:15:22;16.57;;;15.90;;
2622;SDS011;1321;48.690;9.022;2023-07-31T16:17:50;16.97;;;16.33;;
2622;SDS011;1321;48.690;9.022;2023-07-31T16:20:22;16.93;;;16.20;;